Time;durP1;ratioP1;P1;durP2;ratioP2;P2;SDS_P1;SDS_P2;PMS_P1;PMS_P2;Temp;Humidity;BMP_temperature;BMP_pressure;BME280_temperature;BME280_humidity;BME280_pressure;Samples;Min_cycle;Max_cycle;Signal;HPM_P1;HPM_P2
2022/03/10 00:00:12;;;;;;;27.60;14.80;;;;;;;4.61;42.06;99448.22;4149521;28;20671;-35
2022/03/10 00:02:14;;;;;;;22.43;16.07;;;;;;;4.85;41.75;99444.50;4141395;28;20244;-32
2022/03/10 00:04:16;;;;;;;21.23;15.60;;;;;;;4.88;41.64;99460.03;4148965;28;20250;-32
2022/03/10 00:06:18;;;;;;;25.87;16.83;;;;;;;5.03;41.55;99456.13;4141243;28;20275;-34
2022/03/10 00:08:19;;;;;;;25.47;18.30;;;;;;;4.86;41.65;99461.97;4144108;28;20240;-34
2022/03/10 00:10:21;;;;;;;30.47;19.27;;;;;;;5.03;41.66;99464.03;4155603;28;20287;-34
2022/03/10 00:12:23;;;;;;;26.03;19.03;;;;;;;5.02;41.58;99464.16;4155310;28;20226;-34
2022/03/10 00:14:25;;;;;;;26.40;18.20;;;;;;;5.02;41.42;99464.16;4148990;28;20244;-33
2022/03/10 00:16:26;;;;;;;25.20;16.83;;;;;;;5.18;41.20;99463.66;4143916;28;20891;-33
2022/03/10 00:18:28;;;;;;;22.80;16.03;;;;;;;5.30;40.90;99464.41;4155751;28;20223;-34
2022/03/10 00:20:30;;;;;;;22.83;16.83;;;;;;;4.77;41.63;99486.47;4159972;28;20227;-35
2022/03/10 00:22:42;;;;;;;25.50;15.57;;;;;;;4.91;41.95;99474.75;4148633;28;20231;-34
2022/03/10 00:24:44;;;;;;;22.27;14.87;;;;;;;4.97;41.32;99482.97;4159638;28;20591;-34
2022/03/10 00:26:46;;;;;;;21.70;15.30;;;;;;;5.22;41.12;99473.00;4146001;28;20227;-32
2022/03/10 00:28:48;;;;;;;26.77;16.13;;;;;;;5.23;40.81;99480.75;4158471;28;20243;-33
2022/03/10 00:30:49;;;;;;;22.07;15.23;;;;;;;5.12;41.27;99478.22;4155951;28;20234;-34
2022/03/10 00:32:52;;;;;;;26.07;15.80;;;;;;;4.73;41.94;99483.25;4143589;28;20251;-33
2022/03/10 00:34:54;;;;;;;28.90;16.13;;;;;;;4.29;42.65;99491.22;4142986;28;20285;-33
2022/03/10 00:36:56;;;;;;;24.77;16.23;;;;;;;4.90;41.72;99471.28;4158751;28;20240;-35
2022/03/10 00:38:57;;;;;;;28.53;16.83;;;;;;;5.53;40.40;99475.66;4155166;28;20240;-34
2022/03/10 00:40:59;;;;;;;28.23;16.37;;;;;;;5.14;40.99;99478.91;4143704;28;20255;-34
2022/03/10 00:43:01;;;;;;;25.70;16.47;;;;;;;5.39;40.71;99479.50;4142994;28;20460;-34
2022/03/10 00:45:03;;;;;;;25.03;16.47;;;;;;;5.03;41.29;99482.47;4152055;28;20248;-34
2022/03/10 00:47:05;;;;;;;21.90;16.00;;;;;;;3.37;44.68;99491.41;4146157;28;20251;-34
2022/03/10 00:49:06;;;;;;;25.83;16.33;;;;;;;4.16;43.37;99474.75;4143045;28;20816;-34
2022/03/10 00:51:08;;;;;;;23.07;16.20;;;;;;;4.81;42.22;99457.06;4142256;28;20370;-33
2022/03/10 00:53:10;;;;;;;27.57;16.17;;;;;;;4.80;42.05;99463.31;4152790;28;20248;-35
2022/03/10 00:55:15;;;;;;;20.83;14.73;;;;;;;4.73;42.17;99474.50;4147421;28;20330;-34
2022/03/10 00:57:17;;;;;;;28.07;16.97;;;;;;;4.56;42.30;99468.84;4151344;28;20251;-34
2022/03/10 00:59:19;;;;;;;22.70;16.57;;;;;;;4.66;42.43;99466.25;4148475;28;20718;-34
2022/03/10 01:01:20;;;;;;;23.17;16.53;;;;;;;5.08;41.52;99465.41;4146495;28;20232;-34
2022/03/10 01:03:23;;;;;;;28.53;17.43;;;;;;;5.39;40.92;99471.59;4143387;28;20784;-33
2022/03/10 01:05:25;;;;;;;26.10;18.87;;;;;;;5.24;40.88;99465.78;4143461;28;20246;-34
2022/03/10 01:07:27;;;;;;;30.33;18.70;;;;;;;5.49;40.59;99467.19;4154539;28;20297;-34
2022/03/10 01:09:29;;;;;;;23.17;16.73;;;;;;;5.23;40.74;99475.47;4156473;28;20238;-34
2022/03/10 01:11:30;;;;;;;22.90;15.60;;;;;;;5.25;40.86;99483.25;4151117;28;20224;-35
2022/03/10 01:13:32;;;;;;;23.53;15.70;;;;;;;5.20;41.04;99478.41;4154396;28;20241;-34
2022/03/10 01:15:33;;;;;;;23.80;16.23;;;;;;;5.42;40.30;99476.56;4146144;28;20632;-34
2022/03/10 01:17:36;;;;;;;22.00;16.00;;;;;;;4.57;41.86;99473.13;4148130;28;20235;-34
2022/03/10 01:19:38;;;;;;;22.37;15.47;;;;;;;4.48;42.19;99472.09;4145917;28;20236;-33
2022/03/10 01:21:41;;;;;;;23.87;15.77;;;;;;;4.34;41.87;99496.06;4142673;28;20240;-34
2022/03/10 01:23:43;;;;;;;22.07;15.17;;;;;;;4.15;43.05;99482.75;4148710;28;20411;-34
2022/03/10 01:25:44;;;;;;;23.57;15.63;;;;;;;5.01;41.42;99460.66;4144560;28;20248;-33
2022/03/10 01:27:47;;;;;;;22.80;15.17;;;;;;;4.85;41.65;99466.41;4148955;28;20297;-34
2022/03/10 01:29:48;;;;;;;23.33;16.37;;;;;;;4.91;41.45;99472.13;4159480;28;20293;-34
2022/03/10 01:31:50;;;;;;;25.03;15.67;;;;;;;4.61;41.45;99489.50;4144325;28;20415;-34
2022/03/10 01:33:52;;;;;;;22.13;15.10;;;;;;;5.06;41.37;99469.00;4148802;28;20297;-34
2022/03/10 01:35:53;;;;;;;25.87;16.13;;;;;;;5.08;41.17;99475.97;4146965;28;20241;-32
2022/03/10 01:37:55;;;;;;;22.83;15.87;;;;;;;4.93;41.44;99471.00;4141584;28;20245;-34
2022/03/10 01:39:57;;;;;;;23.00;16.20;;;;;;;5.00;41.42;99468.69;4149819;28;20246;-34
2022/03/10 01:42:00;;;;;;;23.30;16.80;;;;;;;4.76;41.78;99474.25;4146137;28;20303;-34
2022/03/10 01:44:07;;;;;;;23.93;17.20;;;;;;;4.79;42.07;99474.00;4142551;28;20295;-34
2022/03/10 01:46:10;;;;;;;23.07;15.23;;;;;;;3.86;43.02;99497.28;4143481;28;20261;-33
2022/03/10 01:48:11;;;;;;;22.03;16.10;;;;;;;4.61;42.55;99456.13;4142284;28;20594;-34
2022/03/10 01:50:15;;;;;;;24.97;17.03;;;;;;;4.67;42.45;99462.69;4148434;28;20237;-34
2022/03/10 01:52:18;;;;;;;24.63;16.43;;;;;;;3.98;43.53;99484.94;4144108;28;20244;-33
2022/03/10 01:54:20;;;;;;;24.67;16.87;;;;;;;4.68;42.21;99465.19;4152481;28;20245;-32
2022/03/10 01:56:23;;;;;;;25.50;16.50;;;;;;;5.06;41.96;99458.47;4148799;28;20220;-32
2022/03/10 01:58:28;;;;;;;25.33;17.13;;;;;;;4.76;42.55;99455.81;4146995;28;20235;-33
2022/03/10 02:00:30;;;;;;;25.47;16.77;;;;;;;4.63;42.07;99474.41;4143348;28;20712;-33
2022/03/10 02:02:32;;;;;;;20.77;15.57;;;;;;;4.86;41.96;99451.44;4142683;28;20259;-34
2022/03/10 02:04:34;;;;;;;26.03;16.40;;;;;;;5.05;41.76;99463.88;4138550;28;20271;-33
2022/03/10 02:06:36;;;;;;;24.70;16.47;;;;;;;4.62;42.59;99470.13;4149281;28;20239;-34
2022/03/10 02:10:58;;;;;;;23.30;15.93;;;;;;;4.08;43.47;99471.88;4141682;28;20242;-34
2022/03/10 02:13:00;;;;;;;27.10;17.13;;;;;;;4.61;42.75;99455.28;4142300;28;20294;-34
2022/03/10 02:17:41;;;;;;;24.63;16.77;;;;;;;4.90;42.32;99455.50;4152766;28;20242;-34
2022/03/10 02:19:43;;;;;;;24.27;16.07;;;;;;;4.73;42.50;99466.59;4145057;28;20526;-35
2022/03/10 02:21:45;;;;;;;22.73;16.13;;;;;;;4.98;42.16;99457.47;4145243;28;20235;-35
2022/03/10 02:23:49;;;;;;;22.50;16.10;;;;;;;4.99;42.07;99446.78;4147844;28;20236;-35
2022/03/10 02:25:51;;;;;;;35.40;21.67;;;;;;;4.23;43.45;99454.84;4142927;28;20247;-35
2022/03/10 02:27:55;;;;;;;33.67;22.17;;;;;;;4.64;42.66;99462.94;4150385;28;20820;-35
2022/03/10 02:29:59;;;;;;;28.67;19.53;;;;;;;5.07;41.96;99467.22;4157320;28;20240;-35
2022/03/10 02:32:01;;;;;;;27.30;19.57;;;;;;;4.79;42.37;99464.28;4133971;28;20239;-35
2022/03/10 02:34:03;;;;;;;27.63;19.50;;;;;;;4.78;42.32;99467.03;4149953;28;20274;-35
2022/03/10 02:36:05;;;;;;;28.17;19.97;;;;;;;4.90;42.15;99463.41;4141769;28;20291;-35
2022/03/10 02:38:07;;;;;;;29.00;18.03;;;;;;;4.76;42.23;99463.69;4143013;28;20601;-33
2022/03/10 02:40:10;;;;;;;26.10;16.97;;;;;;;4.80;42.45;99462.50;4151870;28;20277;-35
2022/03/10 02:42:15;;;;;;;24.97;16.33;;;;;;;4.58;42.62;99469.56;4147829;28;20524;-35
2022/03/10 02:44:17;;;;;;;26.90;16.60;;;;;;;3.93;43.86;99472.16;4141934;28;20701;-34
2022/03/10 02:46:19;;;;;;;22.93;15.57;;;;;;;4.59;42.78;99450.13;4141855;28;20540;-35
2022/03/10 02:48:21;;;;;;;25.43;15.23;;;;;;;4.75;42.69;99462.03;4139790;28;20259;-35
2022/03/10 02:50:23;;;;;;;24.93;16.03;;;;;;;4.68;42.74;99459.09;4145277;28;20230;-35
2022/03/10 02:52:25;;;;;;;23.70;15.07;;;;;;;4.66;42.85;99466.25;4153450;28;20442;-35
2022/03/10 02:54:26;;;;;;;27.37;16.23;;;;;;;4.44;43.11;99459.31;4147877;28;20750;-35
2022/03/10 02:56:28;;;;;;;25.40;16.77;;;;;;;4.31;43.67;99460.31;4140205;28;20227;-35
2022/03/10 02:58:30;;;;;;;24.03;16.07;;;;;;;3.93;44.45;99473.94;4141466;28;20228;-35
2022/03/10 03:00:32;;;;;;;26.80;15.63;;;;;;;4.24;43.92;99461.78;4143660;28;20232;-35
2022/03/10 03:02:34;;;;;;;22.40;15.93;;;;;;;4.59;43.28;99459.84;4141520;28;20455;-33
2022/03/10 03:04:36;;;;;;;23.97;16.07;;;;;;;4.54;43.15;99467.28;4143023;28;20777;-35
2022/03/10 03:06:38;;;;;;;23.53;16.87;;;;;;;4.50;43.21;99471.97;4144096;28;20291;-37
2022/03/10 03:08:39;;;;;;;29.30;17.27;;;;;;;4.48;43.53;99458.13;4141628;28;20290;-34
2022/03/10 03:10:41;;;;;;;25.20;16.00;;;;;;;4.46;43.44;99471.41;4147021;28;20590;-35
2022/03/10 03:12:49;;;;;;;25.87;17.27;;;;;;;4.19;43.92;99476.28;4143715;28;20223;-33
2022/03/10 03:14:52;;;;;;;23.57;15.33;;;;;;;4.29;43.78;99480.69;4142098;28;20253;-35
2022/03/10 03:16:57;;;;;;;26.57;15.40;;;;;;;4.35;43.62;99470.59;4142952;28;20241;-35
2022/03/10 03:18:59;;;;;;;23.10;15.77;;;;;;;4.18;43.87;99477.25;4149428;28;20246;-35
2022/03/10 03:21:01;;;;;;;27.53;16.43;;;;;;;4.00;44.18;99479.56;4132962;28;20239;-33
2022/03/10 03:23:03;;;;;;;26.17;16.50;;;;;;;3.80;44.79;99481.97;4148423;28;20272;-35
2022/03/10 03:25:05;;;;;;;24.27;15.73;;;;;;;3.69;44.88;99476.75;4149985;28;20256;-33
2022/03/10 03:27:06;;;;;;;24.50;16.00;;;;;;;3.66;44.97;99480.44;4142758;28;20246;-35
2022/03/10 03:29:08;;;;;;;23.03;15.10;;;;;;;3.87;44.74;99467.41;4149632;28;20718;-35
2022/03/10 03:31:11;;;;;;;22.10;15.03;;;;;;;3.82;44.77;99473.97;4145648;28;20239;-35
2022/03/10 03:33:12;;;;;;;23.17;16.67;;;;;;;4.01;44.43;99466.28;4139864;28;20231;-35
2022/03/10 03:35:14;;;;;;;25.53;16.47;;;;;;;4.08;44.34;99469.25;4141742;28;20626;-35
2022/03/10 03:37:16;;;;;;;23.20;15.30;;;;;;;3.85;44.80;99471.91;4123929;28;20244;-34
2022/03/10 03:39:18;;;;;;;20.87;15.73;;;;;;;3.71;45.12;99478.28;4126803;28;20230;-33
2022/03/10 03:41:20;;;;;;;24.50;16.07;;;;;;;3.71;45.04;99473.03;4131897;28;21535;-34
2022/03/10 03:43:21;;;;;;;23.07;17.10;;;;;;;3.92;44.69;99473.13;4141231;28;20294;-34
2022/03/10 03:45:23;;;;;;;25.47;16.50;;;;;;;3.88;44.90;99479.56;4134948;28;20310;-35
2022/03/10 03:47:25;;;;;;;29.03;16.60;;;;;;;3.82;45.03;99482.72;4138675;28;20244;-34
2022/03/10 03:49:26;;;;;;;27.80;17.93;;;;;;;3.84;45.15;99480.78;4140988;28;20231;-34
2022/03/10 03:51:28;;;;;;;30.27;18.37;;;;;;;3.78;45.18;99473.38;4139427;28;20254;-35
2022/03/10 03:53:30;;;;;;;29.50;19.30;;;;;;;3.56;45.55;99482.97;4140185;28;20247;-34
2022/03/10 03:55:32;;;;;;;30.97;20.13;;;;;;;3.37;46.20;99473.03;4130597;28;20244;-35
2022/03/10 03:57:33;;;;;;;25.40;17.77;;;;;;;3.24;46.60;99476.72;4138034;28;20539;-35
2022/03/10 03:59:35;;;;;;;27.23;17.23;;;;;;;3.41;46.35;99472.78;4139019;28;20289;-35
2022/03/10 04:01:37;;;;;;;25.40;16.53;;;;;;;3.79;45.40;99474.22;4143750;28;20290;-34
2022/03/10 04:03:39;;;;;;;26.03;18.17;;;;;;;3.38;46.18;99479.09;4132805;28;20231;-35
2022/03/10 04:05:40;;;;;;;30.20;19.67;;;;;;;3.51;46.03;99482.47;4137142;28;20245;-34
2022/03/10 04:07:42;;;;;;;26.10;18.30;;;;;;;3.63;45.70;99490.38;4141507;28;20313;-32
2022/03/10 04:09:44;;;;;;;25.93;18.13;;;;;;;2.76;47.69;99489.06;4135146;28;20291;-34
2022/03/10 04:11:45;;;;;;;28.80;18.80;;;;;;;3.34;46.72;99481.13;4138041;28;20241;-33
2022/03/10 04:13:50;;;;;;;27.40;18.17;;;;;;;2.85;47.19;99490.16;4127027;28;20748;-38
2022/03/10 04:15:53;;;;;;;26.00;18.33;;;;;;;3.29;46.64;99477.19;4136392;28;20722;-37
2022/03/10 04:17:54;;;;;;;29.50;19.50;;;;;;;3.48;46.03;99476.63;4134780;28;20662;-43
2022/03/10 04:19:56;;;;;;;27.50;19.00;;;;;;;3.70;45.22;99488.91;4140020;28;20243;-42
2022/03/10 04:21:58;;;;;;;27.67;17.87;;;;;;;3.66;45.49;99485.72;4132422;28;20267;-42
2022/03/10 04:24:00;;;;;;;24.53;16.77;;;;;;;3.58;45.67;99482.84;4127332;28;20722;-38
2022/03/10 04:26:02;;;;;;;23.27;16.13;;;;;;;3.64;45.30;99490.25;4138587;28;20239;-42
2022/03/10 04:28:04;;;;;;;25.57;16.90;;;;;;;3.54;45.74;99494.56;4136345;28;20320;-41
2022/03/10 04:30:06;;;;;;;24.37;15.93;;;;;;;3.56;45.55;99487.38;4143097;28;20244;-43
2022/03/10 04:32:08;;;;;;;27.57;15.83;;;;;;;3.33;46.14;99487.38;4135947;28;20234;-40
2022/03/10 04:34:10;;;;;;;22.37;16.60;;;;;;;3.41;45.92;99488.56;4143220;28;20249;-41
2022/03/10 04:36:12;;;;;;;24.77;15.03;;;;;;;3.34;45.88;99480.31;4142849;28;20284;-38
2022/03/10 04:38:13;;;;;;;24.23;15.80;;;;;;;3.25;46.26;99478.41;4143084;28;20826;-43
2022/03/10 04:40:15;;;;;;;22.83;16.23;;;;;;;3.05;46.51;99493.06;4138741;28;20265;-42
2022/03/10 04:42:17;;;;;;;24.10;16.93;;;;;;;3.02;46.83;99478.38;4137784;28;20498;-42
2022/03/10 04:44:18;;;;;;;26.90;16.63;;;;;;;3.20;46.45;99481.38;4141725;28;20246;-40
2022/03/10 04:46:20;;;;;;;23.40;17.07;;;;;;;3.31;46.34;99483.16;4141039;28;20356;-41
2022/03/10 04:48:22;;;;;;;24.00;16.37;;;;;;;3.33;46.34;99484.75;4139273;28;20242;-42
2022/03/10 04:50:23;;;;;;;27.27;16.63;;;;;;;3.33;46.25;99484.75;4134019;28;20235;-41
2022/03/10 04:52:27;;;;;;;22.07;16.20;;;;;;;3.37;46.25;99482.72;4142972;28;20312;-42
2022/03/10 04:54:28;;;;;;;24.97;16.73;;;;;;;3.31;46.54;99480.53;4130005;28;20631;-39
2022/03/10 04:56:30;;;;;;;23.27;16.30;;;;;;;3.24;46.66;99484.59;4136463;28;20707;-42
2022/03/10 04:58:32;;;;;;;26.13;16.53;;;;;;;3.22;46.77;99482.09;4132900;28;20232;-40
2022/03/10 05:02:38;;;;;;;25.37;15.87;;;;;;;2.45;48.57;99453.75;4244443;27;20334;-63
2022/03/10 05:04:40;;;;;;;22.40;16.50;;;;;;;2.52;48.54;99456.75;4214840;27;20224;-63
2022/03/10 05:06:42;;;;;;;25.20;17.00;;;;;;;2.15;49.60;99454.22;4211760;28;20223;-61
2022/03/10 05:08:43;;;;;;;29.90;17.57;;;;;;;2.64;48.18;99458.47;4208206;28;20326;-62
2022/03/10 05:10:45;;;;;;;23.37;16.90;;;;;;;2.54;48.81;99450.44;4222720;28;20311;-61
2022/03/10 05:12:49;;;;;;;25.57;17.00;;;;;;;3.06;47.56;99458.81;4224400;28;20314;-64
2022/03/10 05:14:51;;;;;;;24.43;17.70;;;;;;;2.75;47.89;99473.41;4223640;28;20232;-61
2022/03/10 05:16:53;;;;;;;30.80;17.47;;;;;;;2.89;47.66;99461.88;4195891;27;20310;-62
2022/03/10 05:18:55;;;;;;;25.57;16.87;;;;;;;2.80;47.89;99469.47;4227076;28;20415;-62
2022/03/10 05:20:57;;;;;;;25.77;17.03;;;;;;;2.98;47.53;99466.44;4223844;28;20949;-62
2022/03/10 05:23:01;;;;;;;27.33;18.37;;;;;;;2.98;47.38;99464.63;4237527;28;20267;-63
2022/03/10 05:25:06;;;;;;;24.40;17.30;;;;;;;2.96;47.49;99469.16;4210441;28;20346;-63
2022/03/10 05:27:07;;;;;;;24.20;18.00;;;;;;;2.87;47.41;99469.03;4232658;28;20263;-63
2022/03/10 05:29:12;;;;;;;26.67;18.23;;;;;;;2.77;47.95;99468.88;4238505;27;20238;-60
2022/03/10 05:31:13;;;;;;;26.17;17.10;;;;;;;2.51;48.73;99470.84;4233733;28;20257;-62
2022/03/10 05:33:15;;;;;;;27.13;18.10;;;;;;;2.53;48.75;99467.13;4195807;27;20227;-63
2022/03/10 05:35:17;;;;;;;25.60;17.03;;;;;;;2.35;49.13;99471.13;4228150;28;20221;-62
2022/03/10 05:37:19;;;;;;;23.50;17.17;;;;;;;2.34;48.95;99470.28;4229713;28;20257;-62
2022/03/10 05:39:21;;;;;;;25.60;17.10;;;;;;;2.30;49.12;99470.63;4219433;28;20639;-62
2022/03/10 05:41:22;;;;;;;23.10;16.50;;;;;;;2.43;48.93;99471.41;4228901;28;20542;-62
2022/03/10 05:43:24;;;;;;;24.90;16.63;;;;;;;2.42;49.00;99470.56;4227399;28;20237;-62
2022/03/10 05:45:26;;;;;;;24.80;16.43;;;;;;;2.17;49.51;99483.81;4236992;28;20308;-62
2022/03/10 05:47:27;;;;;;;27.23;17.33;;;;;;;2.23;49.34;99485.97;4229134;28;20268;-62
2022/03/10 05:49:29;;;;;;;23.60;16.50;;;;;;;1.96;49.88;99483.56;4222308;28;20736;-62
2022/03/10 05:51:30;;;;;;;25.10;16.53;;;;;;;1.77;50.37;99482.25;4221864;28;20249;-62
2022/03/10 05:53:32;;;;;;;28.07;17.23;;;;;;;1.58;51.08;99480.09;4219982;28;20277;-62
2022/03/10 05:55:34;;;;;;;28.37;17.33;;;;;;;1.63;50.80;99478.00;4228529;28;20320;-62
2022/03/10 05:57:35;;;;;;;23.90;17.00;;;;;;;1.64;50.87;99479.66;4221534;28;20254;-61
2022/03/10 05:59:37;;;;;;;25.67;16.47;;;;;;;1.50;51.07;99482.44;4235328;28;20237;-61
2022/03/10 06:01:39;;;;;;;23.87;16.97;;;;;;;1.31;51.86;99468.00;4226431;28;20257;-61
2022/03/10 06:03:41;;;;;;;29.60;16.23;;;;;;;1.30;51.67;99473.31;4232637;28;20225;-61
2022/03/10 06:05:43;;;;;;;25.40;15.97;;;;;;;1.38;51.50;99470.19;4227985;28;20260;-62
2022/03/10 06:07:44;;;;;;;23.20;16.53;;;;;;;1.45;51.45;99469.63;4235923;28;20268;-61
2022/03/10 06:09:46;;;;;;;23.27;15.77;;;;;;;1.64;51.14;99468.34;4232963;27;20757;-62
2022/03/10 06:11:48;;;;;;;22.40;15.03;;;;;;;1.54;51.35;99472.56;4230869;28;20716;-61
2022/03/10 06:13:49;;;;;;;27.67;16.10;;;;;;;1.66;51.17;99466.44;4227248;28;20245;-61
2022/03/10 06:15:51;;;;;;;24.13;15.87;;;;;;;1.59;51.16;99478.31;4222821;28;20648;-61
2022/03/10 06:17:53;;;;;;;23.97;16.17;;;;;;;1.56;51.39;99481.16;4206986;28;20244;-61
2022/03/10 06:19:55;;;;;;;22.77;15.13;;;;;;;1.65;50.92;99488.38;4225607;28;20296;-61
2022/03/10 06:21:56;;;;;;;23.87;16.50;;;;;;;1.83;50.66;99488.84;4213742;28;20674;-61
2022/03/10 06:23:58;;;;;;;21.23;15.43;;;;;;;1.84;50.75;99487.91;4219683;28;20832;-61
2022/03/10 06:26:00;;;;;;;26.17;16.57;;;;;;;1.86;50.58;99481.63;4220242;28;20314;-61
2022/03/10 06:28:01;;;;;;;24.13;16.27;;;;;;;1.95;50.61;99492.38;4200346;28;20727;-61
2022/03/10 06:30:04;;;;;;;25.90;16.13;;;;;;;2.31;49.59;99498.56;4224156;28;20268;-61
2022/03/10 06:32:06;;;;;;;25.20;17.57;;;;;;;2.36;49.64;99499.06;4220551;28;20762;-61
2022/03/10 06:34:07;;;;;;;23.20;15.47;;;;;;;2.44;49.20;99500.16;4225878;28;20267;-62
2022/03/10 06:36:09;;;;;;;25.10;15.97;;;;;;;2.60;49.11;99489.34;4214563;28;20265;-62
2022/03/10 06:38:10;;;;;;;24.43;15.27;;;;;;;2.56;49.12;99494.97;4222295;28;20313;-61
2022/03/10 06:40:13;;;;;;;23.70;15.07;;;;;;;2.42;49.26;99498.59;4217728;28;20257;-61
2022/03/10 06:42:15;;;;;;;25.70;16.67;;;;;;;2.56;49.17;99505.47;4214034;28;20227;-62
2022/03/10 06:44:17;;;;;;;22.87;15.67;;;;;;;2.45;49.28;99499.22;4205380;28;20257;-62
2022/03/10 06:46:18;;;;;;;22.67;16.73;;;;;;;2.76;48.60;99502.19;4221039;28;20269;-61
2022/03/10 06:48:20;;;;;;;25.23;16.60;;;;;;;2.86;48.53;99504.09;4225938;28;20694;-62
2022/03/10 06:50:22;;;;;;;23.97;17.40;;;;;;;3.02;48.19;99504.63;4222246;28;20259;-61
2022/03/10 06:52:24;;;;;;;23.67;16.93;;;;;;;3.07;48.06;99499.88;4220327;28;20266;-61
2022/03/10 06:54:25;;;;;;;21.17;16.60;;;;;;;2.99;48.21;99503.09;4225372;28;20266;-61
2022/03/10 06:56:27;;;;;;;23.57;16.63;;;;;;;3.15;47.90;99504.53;4214884;28;20316;-61
2022/03/10 06:58:29;;;;;;;23.83;16.17;;;;;;;3.32;47.36;99526.91;4211341;28;20262;-61
2022/03/10 07:00:32;;;;;;;25.63;18.13;;;;;;;3.36;47.47;99515.19;4220623;28;20315;-62
2022/03/10 07:02:34;;;;;;;23.37;16.80;;;;;;;3.28;47.65;99518.41;4218530;28;20294;-61
2022/03/10 07:04:36;;;;;;;26.33;16.93;;;;;;;3.29;47.73;99524.50;4200156;28;20228;-62
2022/03/10 07:06:37;;;;;;;23.97;17.37;;;;;;;3.43;47.75;99524.28;4212776;28;20267;-61
2022/03/10 07:08:39;;;;;;;22.73;17.20;;;;;;;3.55;47.60;99528.63;4222643;28;20670;-61
2022/03/10 07:10:41;;;;;;;25.33;19.90;;;;;;;3.48;47.64;99543.22;4222688;28;20342;-61
2022/03/10 07:12:42;;;;;;;29.47;22.03;;;;;;;3.39;47.88;99536.81;4223236;28;20318;-63
2022/03/10 07:14:44;;;;;;;27.23;22.90;;;;;;;3.46;48.22;99539.00;4224127;28;20436;-62
2022/03/10 07:16:46;;;;;;;27.13;20.80;;;;;;;3.56;47.88;99532.09;4217687;28;20704;-62
2022/03/10 07:18:50;;;;;;;26.37;21.67;;;;;;;2.90;48.87;99555.47;4225545;28;20285;-62
2022/03/10 07:20:52;;;;;;;26.47;20.63;;;;;;;2.34;50.32;99564.75;4215846;28;20727;-62
2022/03/10 07:22:54;;;;;;;25.93;19.00;;;;;;;3.08;49.41;99534.84;4223550;28;20647;-62
2022/03/10 07:24:56;;;;;;;22.07;15.87;;;;;;;2.82;49.47;99540.28;4217244;28;20781;-62
2022/03/10 07:26:57;;;;;;;19.73;16.37;;;;;;;3.50;48.56;99530.78;4220651;28;20322;-62
2022/03/10 07:28:59;;;;;;;21.93;14.97;;;;;;;3.09;49.42;99542.59;4211864;28;20320;-62
2022/03/10 07:31:01;;;;;;;23.40;15.27;;;;;;;3.33;48.99;99536.44;4211639;28;20243;-62
2022/03/10 07:33:03;;;;;;;22.60;15.47;;;;;;;3.59;48.28;99563.41;4216820;28;20313;-61
2022/03/10 07:35:05;;;;;;;20.03;15.03;;;;;;;3.28;50.20;99546.47;4209146;28;20688;-62
2022/03/10 07:37:07;;;;;;;21.87;14.83;;;;;;;2.72;51.60;99536.66;4220717;28;20264;-62
2022/03/10 07:39:09;;;;;;;19.83;14.40;;;;;;;3.54;49.63;99526.94;4220479;28;20279;-62
2022/03/10 07:41:12;;;;;;;19.87;15.13;;;;;;;3.78;48.99;99539.13;4218021;28;20263;-62
2022/03/10 07:43:15;;;;;;;22.63;15.43;;;;;;;2.67;50.81;99571.13;4220180;28;20272;-61
2022/03/10 07:45:16;;;;;;;23.20;14.43;;;;;;;3.35;50.07;99542.44;4220251;28;20760;-62
2022/03/10 07:47:20;;;;;;;21.77;14.90;;;;;;;2.62;50.20;99591.63;4209363;28;20228;-62
2022/03/10 07:49:21;;;;;;;21.10;14.73;;;;;;;2.45;51.04;99569.22;4210267;28;20260;-62
2022/03/10 07:51:23;;;;;;;23.33;15.53;;;;;;;3.79;49.45;99545.25;4216523;28;20305;-62
2022/03/10 07:53:25;;;;;;;18.53;13.60;;;;;;;2.82;51.24;99562.13;4219735;28;20260;-62
2022/03/10 07:55:27;;;;;;;21.93;15.03;;;;;;;3.23;50.73;99551.25;4222954;28;20350;-62
2022/03/10 07:57:28;;;;;;;22.77;15.43;;;;;;;3.61;49.85;99558.84;4220562;28;20784;-62
2022/03/10 07:59:30;;;;;;;24.50;15.00;;;;;;;2.25;51.98;99576.75;4224390;28;20237;-63
2022/03/10 08:01:32;;;;;;;23.83;15.57;;;;;;;3.22;51.62;99534.66;4219801;28;20348;-62
2022/03/10 08:03:35;;;;;;;20.53;14.53;;;;;;;3.87;50.17;99534.94;4224229;28;20321;-62
2022/03/10 08:05:38;;;;;;;28.83;16.87;;;;;;;3.93;49.81;99553.69;4218319;28;20238;-62
2022/03/10 08:07:40;;;;;;;21.77;15.07;;;;;;;4.45;48.23;99546.06;4218817;28;20313;-62
2022/03/10 08:09:42;;;;;;;21.50;14.63;;;;;;;4.13;49.28;99543.41;4224080;28;20332;-62
2022/03/10 08:11:43;;;;;;;21.97;16.60;;;;;;;3.70;50.44;99552.03;4220391;28;20253;-62
2022/03/10 08:13:45;;;;;;;22.70;16.37;;;;;;;4.50;48.40;99535.16;4224046;28;20261;-63
2022/03/10 08:15:47;;;;;;;20.70;15.43;;;;;;;5.24;46.54;99545.69;4205740;28;20261;-63
2022/03/10 08:17:49;;;;;;;22.37;15.40;;;;;;;5.33;46.24;99532.75;4223041;28;20237;-62
2022/03/10 08:19:52;;;;;;;20.87;15.33;;;;;;;4.65;47.34;99564.69;4224563;28;20316;-63
2022/03/10 08:21:54;;;;;;;22.80;15.23;;;;;;;5.29;46.70;99537.41;4219099;28;20324;-63
2022/03/10 08:23:55;;;;;;;22.43;14.47;;;;;;;4.54;48.16;99559.44;4223997;28;20462;-63
2022/03/10 08:25:57;;;;;;;21.43;14.33;;;;;;;4.50;48.19;99540.44;4220600;28;20313;-63
2022/03/10 08:27:59;;;;;;;22.80;16.03;;;;;;;3.41;49.00;99586.63;4223979;28;20269;-63
2022/03/10 08:30:01;;;;;;;20.87;14.53;;;;;;;3.97;49.16;99562.19;4209632;28;20358;-62
2022/03/10 08:32:03;;;;;;;20.93;14.07;;;;;;;3.89;49.49;99546.19;4220126;28;20261;-63
2022/03/10 08:34:05;;;;;;;21.73;15.23;;;;;;;4.28;48.59;99552.69;4206119;28;20356;-63
2022/03/10 08:36:07;;;;;;;21.83;15.30;;;;;;;4.24;48.89;99548.66;4212041;28;20272;-63
2022/03/10 08:38:09;;;;;;;20.67;14.50;;;;;;;4.29;49.18;99532.47;4214739;28;20260;-63
2022/03/10 08:40:18;;;;;;;23.90;15.33;;;;;;;4.87;47.44;99554.03;4216386;28;20758;-63
2022/03/10 08:42:19;;;;;;;22.87;16.00;;;;;;;5.36;46.92;99533.31;4220613;28;20712;-63
2022/03/10 08:44:21;;;;;;;20.63;15.03;;;;;;;6.27;44.70;99528.06;4222673;28;20244;-60
2022/03/10 08:46:23;;;;;;;21.83;15.60;;;;;;;5.61;46.81;99532.03;4217382;28;20318;-62
2022/03/10 08:48:25;;;;;;;22.67;16.00;;;;;;;5.74;46.25;99529.19;4218548;28;20263;-62
2022/03/10 08:50:27;;;;;;;24.17;16.20;;;;;;;5.14;47.63;99534.25;4224364;28;20314;-62
2022/03/10 08:52:28;;;;;;;24.03;16.30;;;;;;;5.56;46.15;99533.41;4206311;28;20437;-62
2022/03/10 08:54:30;;;;;;;24.30;15.40;;;;;;;5.24;46.97;99568.59;4221753;28;20305;-63
2022/03/10 08:56:32;;;;;;;28.10;16.77;;;;;;;5.38;47.38;99528.75;4219366;28;20603;-62
2022/03/10 08:58:33;;;;;;;25.90;15.63;;;;;;;5.69;46.67;99520.00;4224266;28;20274;-62
2022/03/10 09:00:35;;;;;;;24.60;16.30;;;;;;;5.64;46.87;99533.59;4222851;28;20753;-63
2022/03/10 09:02:37;;;;;;;23.27;15.77;;;;;;;6.12;45.90;99517.06;4220393;28;20228;-63
2022/03/10 09:04:39;;;;;;;23.47;15.47;;;;;;;5.98;45.88;99538.56;4220052;28;20787;-63
2022/03/10 09:06:41;;;;;;;25.23;15.63;;;;;;;6.70;43.97;99515.44;4217115;28;20793;-62
2022/03/10 09:08:45;;;;;;;22.60;16.13;;;;;;;6.29;44.51;99546.44;4223272;28;20265;-62
2022/03/10 09:10:46;;;;;;;27.07;16.47;;;;;;;6.73;43.98;99526.56;4220149;28;20234;-63
2022/03/10 09:12:48;;;;;;;22.13;15.77;;;;;;;6.80;43.63;99533.94;4205815;28;20294;-62
2022/03/10 09:14:49;;;;;;;25.93;15.20;;;;;;;6.75;44.43;99529.06;4222953;28;20247;-63
2022/03/10 09:16:52;;;;;;;25.73;17.13;;;;;;;6.89;44.50;99527.84;4219958;28;20644;-63
2022/03/10 09:18:54;;;;;;;22.90;15.87;;;;;;;6.58;44.16;99535.06;4224107;28;20320;-63
2022/03/10 09:20:55;;;;;;;23.27;16.20;;;;;;;6.71;43.98;99532.97;4215193;28;20238;-63
2022/03/10 09:22:57;;;;;;;23.97;15.87;;;;;;;6.84;43.76;99527.44;4222645;28;20237;-63
2022/03/10 09:25:02;;;;;;;21.87;16.10;;;;;;;6.92;44.31;99532.84;4220913;28;20268;-63
2022/03/10 09:27:06;;;;;;;22.03;15.87;;;;;;;7.18;42.95;99530.47;4214927;28;20233;-62
2022/03/10 09:29:08;;;;;;;23.83;16.07;;;;;;;7.40;42.69;99536.41;4222557;28;20316;-63
2022/03/10 09:31:12;;;;;;;27.40;15.90;;;;;;;6.98;43.18;99549.97;4219545;28;20325;-63
2022/03/10 09:33:14;;;;;;;22.73;16.00;;;;;;;7.06;43.55;99536.88;4223422;28;20684;-62